Time;durP1;ratioP1;P1;durP2;ratioP2;P2;SDS_P1;SDS_P2;PMS_P1;PMS_P2;Temp;Humidity;BMP_temperature;BMP_pressure;BME280_temperature;BME280_humidity;BME280_pressure;Samples;Min_cycle;Max_cycle;Signal;HPM_P1;HPM_P2
2022/08/07 00:01:46;;;;;;;7.27;6.77;;;18.70;99.90;;;;;;5041875;28;20816;-53
2022/08/07 00:04:13;;;;;;;7.97;7.37;;;18.80;99.90;;;;;;5053677;28;20218;-53
2022/08/07 00:06:40;;;;;;;6.33;6.03;;;18.70;99.90;;;;;;5054076;28;20256;-53
2022/08/07 00:09:07;;;;;;;7.50;6.90;;;18.70;99.90;;;;;;5052081;28;20674;-53
2022/08/07 00:11:34;;;;;;;7.33;6.73;;;18.70;99.90;;;;;;5045414;28;20194;-53
2022/08/07 00:14:01;;;;;;;7.57;7.17;;;18.80;99.90;;;;;;5043942;28;20217;-52
2022/08/07 00:16:29;;;;;;;7.07;6.67;;;18.70;99.90;;;;;;5050192;28;20271;-53
2022/08/07 00:18:56;;;;;;;7.93;7.23;;;18.80;99.90;;;;;;5053937;28;20206;-53
2022/08/07 00:21:23;;;;;;;8.30;7.70;;;18.80;99.90;;;;;;5044210;28;20229;-53
2022/08/07 00:23:50;;;;;;;8.73;8.20;;;18.70;99.90;;;;;;5051728;28;20221;-53
2022/08/07 00:26:17;;;;;;;8.03;7.53;;;18.80;99.90;;;;;;5046974;28;20199;-53
2022/08/07 00:28:44;;;;;;;7.30;6.90;;;18.80;99.90;;;;;;5050818;28;20198;-53
2022/08/07 00:31:11;;;;;;;8.63;8.07;;;18.80;99.90;;;;;;5043863;28;20202;-53
2022/08/07 00:33:41;;;;;;;9.67;8.87;;;18.70;99.90;;;;;;5049168;28;20271;-53
2022/08/07 00:36:08;;;;;;;9.87;9.27;;;18.80;99.90;;;;;;5053013;28;20233;-53
2022/08/07 00:38:36;;;;;;;8.30;7.70;;;18.80;99.90;;;;;;5044152;28;20206;-52
2022/08/07 00:41:04;;;;;;;7.73;7.23;;;18.90;99.90;;;;;;5052996;28;20289;-53
2022/08/07 00:43:31;;;;;;;7.97;7.47;;;18.90;99.90;;;;;;5052754;28;20229;-53
2022/08/07 00:45:59;;;;;;;8.63;8.13;;;18.80;99.90;;;;;;5053313;28;20248;-53
2022/08/07 00:48:26;;;;;;;9.40;8.80;;;18.80;99.90;;;;;;5051879;28;20640;-53
2022/08/07 00:50:55;;;;;;;9.53;8.93;;;18.80;99.90;;;;;;5048292;28;20206;-53
2022/08/07 00:53:22;;;;;;;10.00;9.10;;;18.80;99.90;;;;;;5050697;28;20618;-53
2022/08/07 00:55:49;;;;;;;8.60;8.13;;;18.70;99.90;;;;;;5052829;28;20730;-53
2022/08/07 00:58:19;;;;;;;9.93;9.33;;;18.80;99.90;;;;;;5053134;28;20292;-54
2022/08/07 01:00:46;;;;;;;9.43;8.73;;;18.70;99.90;;;;;;5052887;28;20202;-53
2022/08/07 01:03:13;;;;;;;8.97;8.47;;;18.80;99.90;;;;;;5051318;28;20222;-55
2022/08/07 01:05:42;;;;;;;8.40;7.90;;;18.80;99.90;;;;;;5052831;28;20194;-53
2022/08/07 01:08:10;;;;;;;9.07;8.27;;;18.80;99.90;;;;;;5049756;28;20198;-53
2022/08/07 01:10:38;;;;;;;7.87;7.33;;;18.70;99.90;;;;;;5051059;28;20206;-53
2022/08/07 01:13:05;;;;;;;6.50;6.10;;;18.80;99.90;;;;;;5042946;28;20640;-53
2022/08/07 01:15:34;;;;;;;5.97;5.67;;;18.70;99.90;;;;;;5052186;28;20229;-53
2022/08/07 01:18:02;;;;;;;5.43;5.23;;;18.80;99.90;;;;;;5052627;28;20198;-52
2022/08/07 01:20:35;;;;;;;6.00;5.67;;;18.80;99.90;;;;;;5051277;28;20655;-54
2022/08/07 01:23:04;;;;;;;6.63;6.33;;;18.80;99.90;;;;;;5043836;28;20217;-52
2022/08/07 01:25:32;;;;;;;6.27;6.00;;;18.80;99.90;;;;;;5041080;28;20194;-54
2022/08/07 01:27:59;;;;;;;5.63;5.33;;;18.80;99.90;;;;;;5051932;28;20259;-53
2022/08/07 01:30:27;;;;;;;5.60;5.30;;;18.80;99.90;;;;;;5050655;28;20638;-53
2022/08/07 01:32:54;;;;;;;6.27;5.77;;;18.80;99.90;;;;;;5040658;28;20208;-53
2022/08/07 01:35:21;;;;;;;6.17;5.87;;;18.80;99.90;;;;;;5046428;28;20278;-54
2022/08/07 01:37:48;;;;;;;5.37;5.07;;;18.80;99.90;;;;;;5049782;28;20558;-53
2022/08/07 01:40:21;;;;;;;5.33;5.03;;;18.70;99.90;;;;;;5045901;28;20700;-53
2022/08/07 01:42:48;;;;;;;5.80;5.60;;;18.70;99.90;;;;;;5044453;28;20225;-53
2022/08/07 01:45:15;;;;;;;6.80;6.50;;;18.70;99.90;;;;;;5051790;28;20229;-53
2022/08/07 01:47:43;;;;;;;5.33;5.03;;;18.60;99.90;;;;;;5051830;28;20208;-52
2022/08/07 01:50:10;;;;;;;6.40;5.97;;;18.70;99.90;;;;;;5042738;28;20214;-53
2022/08/07 01:52:40;;;;;;;6.80;6.43;;;18.70;99.90;;;;;;5051071;28;20190;-53
2022/08/07 01:55:11;;;;;;;5.10;4.90;;;18.70;99.90;;;;;;5051847;28;20228;-53
2022/08/07 01:57:41;;;;;;;6.10;5.70;;;18.70;99.90;;;;;;5051824;28;20292;-53
2022/08/07 02:00:10;;;;;;;6.57;6.17;;;18.70;99.90;;;;;;5038321;28;20207;-53
2022/08/07 02:02:43;;;;;;;5.97;5.57;;;18.70;99.90;;;;;;5050012;28;20775;-53
2022/08/07 02:05:14;;;;;;;7.00;6.60;;;18.60;99.90;;;;;;5051649;28;20218;-53
2022/08/07 02:07:46;;;;;;;6.27;5.87;;;18.60;99.90;;;;;;5051764;28;20255;-53
2022/08/07 02:10:15;;;;;;;5.43;5.23;;;18.50;99.90;;;;;;5044903;28;20312;-53
2022/08/07 02:12:46;;;;;;;5.87;5.63;;;18.60;99.90;;;;;;5041423;28;20683;-52
2022/08/07 02:15:14;;;;;;;5.87;5.47;;;18.60;99.90;;;;;;5050736;28;20217;-53
2022/08/07 02:17:43;;;;;;;6.47;6.07;;;18.70;99.90;;;;;;5049408;28;20263;-53
2022/08/07 02:20:11;;;;;;;5.93;5.63;;;18.70;99.90;;;;;;5046895;28;20206;-53
2022/08/07 02:22:40;;;;;;;5.93;5.63;;;18.70;99.90;;;;;;5051173;28;20287;-53
2022/08/07 02:25:09;;;;;;;6.10;5.63;;;18.70;99.90;;;;;;5049504;28;20218;-53
2022/08/07 02:27:39;;;;;;;6.50;6.13;;;18.70;99.90;;;;;;5051284;28;20201;-53
2022/08/07 02:30:08;;;;;;;6.50;6.00;;;18.70;99.90;;;;;;5051518;28;20259;-53
2022/08/07 02:32:36;;;;;;;6.67;6.20;;;18.70;99.90;;;;;;5041357;28;20260;-53
2022/08/07 02:35:07;;;;;;;6.80;6.23;;;18.60;99.90;;;;;;5041201;28;20305;-53
2022/08/07 02:37:38;;;;;;;5.77;5.57;;;18.60;99.90;;;;;;5049149;28;20233;-53
2022/08/07 02:40:07;;;;;;;6.27;5.97;;;18.50;99.90;;;;;;5031443;28;20206;-53
2022/08/07 02:42:35;;;;;;;6.53;6.03;;;18.50;99.90;;;;;;5031528;28;20308;-53
2022/08/07 02:45:04;;;;;;;6.53;6.10;;;18.50;99.90;;;;;;5039164;28;20589;-53
2022/08/07 02:47:33;;;;;;;5.70;5.40;;;18.50;99.90;;;;;;5051032;28;20209;-53
2022/08/07 02:50:00;;;;;;;5.97;5.73;;;18.40;99.90;;;;;;5041828;28;20202;-53
2022/08/07 02:52:32;;;;;;;6.10;5.70;;;18.50;99.90;;;;;;5050849;28;20194;-53
2022/08/07 02:55:02;;;;;;;5.37;5.17;;;18.50;99.90;;;;;;5054966;28;20287;-52
2022/08/07 02:57:30;;;;;;;5.67;5.40;;;18.60;99.90;;;;;;5055332;28;20208;-53
2022/08/07 03:00:00;;;;;;;5.50;5.03;;;18.60;99.90;;;;;;5055120;28;20201;-52
2022/08/07 03:02:27;;;;;;;6.60;6.17;;;18.50;99.90;;;;;;5051690;28;20222;-53
2022/08/07 03:04:56;;;;;;;5.67;5.43;;;18.60;99.90;;;;;;5054982;28;20648;-53
2022/08/07 03:07:23;;;;;;;6.43;6.13;;;18.50;99.90;;;;;;5045189;28;20252;-53
2022/08/07 03:09:51;;;;;;;5.73;5.40;;;18.60;99.90;;;;;;5055096;28;20632;-53
2022/08/07 03:12:18;;;;;;;5.70;5.33;;;18.50;99.90;;;;;;5054990;28;20197;-53
2022/08/07 03:14:45;;;;;;;5.70;5.20;;;18.50;99.90;;;;;;5054449;28;20271;-53
2022/08/07 03:17:13;;;;;;;5.40;5.20;;;18.50;99.90;;;;;;5051326;28;20532;-53
2022/08/07 03:19:41;;;;;;;5.77;5.47;;;18.50;99.90;;;;;;5054868;28;20232;-52
2022/08/07 03:22:10;;;;;;;5.00;4.70;;;18.50;99.90;;;;;;5054759;28;20198;-53
2022/08/07 03:24:37;;;;;;;4.90;4.70;;;18.50;99.90;;;;;;5044413;28;20633;-53
2022/08/07 03:27:06;;;;;;;5.53;5.23;;;18.50;99.90;;;;;;5054509;28;20201;-53
2022/08/07 03:29:37;;;;;;;5.60;5.30;;;18.50;99.90;;;;;;5054573;28;20202;-53
2022/08/07 03:32:07;;;;;;;5.37;5.17;;;18.50;99.90;;;;;;5054833;28;20229;-53
2022/08/07 03:34:38;;;;;;;6.17;5.80;;;18.40;99.90;;;;;;5050655;28;20218;-53
2022/08/07 03:37:07;;;;;;;5.57;5.27;;;18.40;99.90;;;;;;5052764;28;20263;-53
2022/08/07 03:39:55;;;;;;;5.67;5.33;;;18.40;99.90;;;;;;5044968;28;20202;-53
2022/08/07 03:42:23;;;;;;;6.17;5.73;;;18.30;99.90;;;;;;5049140;28;20268;-53
2022/08/07 03:44:50;;;;;;;6.40;6.00;;;18.40;99.90;;;;;;5053906;28;20623;-53
2022/08/07 03:47:17;;;;;;;5.17;4.97;;;18.40;99.90;;;;;;5050379;28;20240;-52
2022/08/07 03:49:45;;;;;;;5.43;5.07;;;18.40;99.90;;;;;;5045655;28;20198;-53
2022/08/07 03:52:13;;;;;;;5.07;4.87;;;18.40;99.90;;;;;;5047607;28;20199;-52
2022/08/07 03:54:40;;;;;;;5.33;4.43;;;18.30;99.90;;;;;;5047903;28;20594;-53
2022/08/07 03:57:09;;;;;;;5.63;5.33;;;18.20;99.90;;;;;;5051970;28;20283;-52
2022/08/07 03:59:37;;;;;;;6.50;5.87;;;18.30;99.90;;;;;;5057574;28;20657;-53
2022/08/07 04:02:04;;;;;;;4.97;4.77;;;18.30;99.90;;;;;;5051994;28;20647;-53
2022/08/07 04:04:31;;;;;;;5.40;5.20;;;18.40;99.90;;;;;;5047947;28;20222;-53
2022/08/07 04:06:58;;;;;;;4.63;4.43;;;18.40;99.90;;;;;;5053132;28;20217;-52
2022/08/07 04:09:27;;;;;;;4.53;4.43;;;18.30;99.90;;;;;;5052422;28;20234;-52
2022/08/07 04:11:55;;;;;;;5.67;5.37;;;18.30;99.90;;;;;;5051667;28;20302;-53
2022/08/07 04:14:25;;;;;;;5.53;5.33;;;18.20;99.90;;;;;;5059534;28;20829;-52
2022/08/07 04:16:52;;;;;;;5.67;5.40;;;18.30;99.90;;;;;;5052490;28;20209;-53
2022/08/07 04:19:21;;;;;;;5.80;5.50;;;18.30;99.90;;;;;;5053218;28;20248;-53
2022/08/07 04:21:48;;;;;;;4.60;4.40;;;18.30;99.90;;;;;;5051096;28;20197;-53
2022/08/07 04:24:15;;;;;;;5.50;5.30;;;18.30;99.90;;;;;;5050558;28;20218;-52
2022/08/07 04:26:43;;;;;;;6.30;5.57;;;18.30;99.90;;;;;;5047282;28;20247;-53
2022/08/07 04:29:10;;;;;;;5.10;4.90;;;18.30;99.90;;;;;;5045863;28;20285;-52
2022/08/07 04:31:40;;;;;;;4.97;4.77;;;18.40;99.90;;;;;;5055477;28;20201;-53
2022/08/07 04:34:08;;;;;;;5.53;5.23;;;18.40;99.90;;;;;;5051536;28;20312;-52
2022/08/07 04:36:36;;;;;;;5.47;5.20;;;18.50;99.90;;;;;;5056011;28;20209;-53
2022/08/07 04:39:05;;;;;;;5.37;5.17;;;18.50;99.90;;;;;;5059776;28;20491;-52
2022/08/07 04:41:32;;;;;;;6.27;5.87;;;18.50;99.90;;;;;;5061030;28;20224;-53
2022/08/07 04:44:02;;;;;;;6.17;5.80;;;18.50;99.90;;;;;;5050360;28;20725;-53
2022/08/07 04:46:35;;;;;;;5.40;5.20;;;18.60;99.90;;;;;;5046448;28;20609;-53
2022/08/07 04:49:11;;;;;;;5.60;5.30;;;18.50;99.90;;;;;;5052864;28;20202;-52
2022/08/07 04:51:51;;;;;;;5.23;4.93;;;18.60;99.90;;;;;;5049125;28;20793;-53
2022/08/07 04:54:24;;;;;;;5.80;5.50;;;18.60;99.90;;;;;;5049729;28;20205;-52
2022/08/07 04:56:59;;;;;;;6.20;5.67;;;18.60;99.90;;;;;;5052166;28;20713;-52
2022/08/07 04:59:33;;;;;;;6.10;5.80;;;18.60;99.90;;;;;;5049396;28;20228;-53
2022/08/07 05:02:07;;;;;;;6.03;5.63;;;18.60;99.90;;;;;;5056001;28;20252;-53
2022/08/07 05:04:53;;;;;;;6.33;6.03;;;18.60;99.90;;;;;;5048174;28;20228;-52
2022/08/07 05:07:25;;;;;;;7.50;7.07;;;18.60;99.90;;;;;;5049397;28;20198;-52
2022/08/07 05:09:59;;;;;;;8.97;8.37;;;18.60;99.90;;;;;;5052783;28;20531;-53
2022/08/07 05:12:31;;;;;;;7.47;7.07;;;18.60;99.90;;;;;;5050789;28;20271;-52
2022/08/07 05:15:14;;;;;;;8.87;8.17;;;18.70;99.90;;;;;;5050803;28;20271;-53
2022/08/07 05:17:44;;;;;;;6.73;6.40;;;18.70;99.90;;;;;;5050304;28;20200;-52
2022/08/07 05:20:16;;;;;;;7.60;7.20;;;18.70;99.90;;;;;;5049443;28;20289;-53
2022/08/07 05:22:45;;;;;;;6.60;6.30;;;18.70;99.90;;;;;;5048196;28;20197;-52
2022/08/07 05:25:14;;;;;;;6.80;6.20;;;18.70;99.90;;;;;;5046488;28;20340;-53
2022/08/07 05:27:43;;;;;;;7.13;6.63;;;18.70;99.90;;;;;;5053278;28;20705;-53
2022/08/07 05:30:11;;;;;;;7.73;7.17;;;18.70;99.90;;;;;;5049989;28;20202;-53
2022/08/07 05:32:39;;;;;;;6.77;6.37;;;18.70;99.90;;;;;;5050437;28;20613;-53
2022/08/07 05:35:09;;;;;;;6.30;6.00;;;18.80;99.90;;;;;;5050596;28;20291;-53
2022/08/07 05:37:39;;;;;;;5.67;5.37;;;18.90;99.90;;;;;;5042012;28;20210;-53
2022/08/07 05:40:07;;;;;;;5.87;5.57;;;18.90;99.90;;;;;;5057568;28;20327;-53
2022/08/07 05:42:34;;;;;;;5.93;5.73;;;18.90;99.90;;;;;;5058167;28;20197;-53
2022/08/07 05:45:02;;;;;;;7.67;7.20;;;19.00;99.90;;;;;;5049816;28;20268;-53
2022/08/07 05:47:29;;;;;;;5.93;5.63;;;19.00;99.90;;;;;;5049252;28;20201;-53
2022/08/07 05:49:56;;;;;;;6.40;6.10;;;19.10;99.90;;;;;;5054641;28;20244;-53
2022/08/07 05:52:23;;;;;;;5.97;5.53;;;19.00;99.90;;;;;;5061661;28;20562;-52
2022/08/07 05:54:52;;;;;;;6.90;6.37;;;19.00;99.90;;;;;;5051354;28;20694;-52
2022/08/07 05:57:20;;;;;;;6.67;6.23;;;19.00;99.90;;;;;;5057334;28;20197;-53
2022/08/07 05:59:49;;;;;;;8.53;7.83;;;19.10;99.90;;;;;;5049469;28;20225;-53
2022/08/07 06:02:19;;;;;;;6.27;5.87;;;19.10;99.90;;;;;;5049532;28;20251;-52
2022/08/07 06:04:52;;;;;;;6.37;6.07;;;19.20;99.90;;;;;;5052846;28;20221;-53
2022/08/07 06:07:19;;;;;;;6.13;5.73;;;19.20;99.90;;;;;;5053278;28;20232;-53
2022/08/07 06:09:47;;;;;;;6.30;6.00;;;19.20;99.90;;;;;;5039925;28;20241;-53
2022/08/07 06:12:16;;;;;;;6.57;6.27;;;19.30;99.90;;;;;;5044482;28;20620;-52
2022/08/07 06:14:43;;;;;;;7.53;6.93;;;19.30;99.90;;;;;;5051507;28;20213;-53
2022/08/07 06:17:12;;;;;;;8.00;7.50;;;19.30;99.90;;;;;;5050708;28;20204;-52
2022/08/07 06:19:40;;;;;;;7.10;6.70;;;19.40;99.90;;;;;;5049713;28;20285;-53
2022/08/07 06:22:07;;;;;;;7.53;7.03;;;19.40;99.90;;;;;;5048913;28;20280;-52
2022/08/07 06:24:36;;;;;;;7.33;6.87;;;19.40;99.90;;;;;;5049427;28;20286;-53
2022/08/07 06:27:03;;;;;;;7.40;6.90;;;19.40;99.90;;;;;;5055341;28;20212;-52
2022/08/07 06:29:32;;;;;;;7.70;7.20;;;19.30;99.90;;;;;;5054689;28;20201;-52
2022/08/07 06:32:00;;;;;;;7.93;7.43;;;19.40;99.90;;;;;;5051173;28;20208;-53
2022/08/07 06:34:27;;;;;;;8.87;8.17;;;19.40;99.90;;;;;;5051541;28;20250;-52
2022/08/07 06:36:55;;;;;;;7.47;7.00;;;19.40;99.90;;;;;;5049328;28;20339;-53
2022/08/07 06:39:23;;;;;;;7.57;7.07;;;19.40;99.90;;;;;;5064295;28;20215;-52
2022/08/07 06:41:57;;;;;;;7.90;7.50;;;19.50;99.90;;;;;;5069084;28;20223;-53
2022/08/07 06:44:26;;;;;;;8.60;7.93;;;19.60;99.90;;;;;;5065819;28;20676;-53
2022/08/07 06:46:54;;;;;;;7.67;7.23;;;19.70;99.90;;;;;;5047258;28;20197;-53
2022/08/07 06:49:22;;;;;;;8.20;7.80;;;19.80;99.90;;;;;;5051892;28;20202;-53
2022/08/07 06:51:50;;;;;;;8.83;8.33;;;19.90;99.90;;;;;;5050178;28;20201;-52
2022/08/07 06:54:18;;;;;;;8.77;8.00;;;19.90;99.90;;;;;;5043861;28;20592;-52
2022/08/07 06:56:49;;;;;;;8.40;7.73;;;19.90;99.90;;;;;;5044384;28;20213;-52
2022/08/07 06:59:20;;;;;;;8.03;7.57;;;20.00;99.90;;;;;;5046003;28;20198;-52
2022/08/07 07:01:48;;;;;;;8.90;8.30;;;20.00;99.90;;;;;;5047394;28;20202;-52
2022/08/07 07:04:17;;;;;;;8.97;8.37;;;20.10;99.90;;;;;;5055468;28;20308;-53
2022/08/07 07:06:44;;;;;;;8.77;8.17;;;20.00;99.90;;;;;;5053037;28;20202;-53
2022/08/07 07:09:23;;;;;;;9.57;8.77;;;20.20;99.90;;;;;;5045232;28;20572;-52
2022/08/07 07:12:04;;;;;;;8.40;7.90;;;20.20;99.90;;;;;;5047677;28;20707;-53
2022/08/07 07:14:37;;;;;;;9.60;9.00;;;20.20;99.90;;;;;;5045170;28;20265;-53
2022/08/07 07:17:09;;;;;;;10.60;9.70;;;20.10;99.90;;;;;;5042111;28;20198;-52
2022/08/07 07:19:43;;;;;;;9.93;9.10;;;20.00;99.90;;;;;;5050460;28;20222;-52
2022/08/07 07:22:11;;;;;;;9.47;8.77;;;19.90;99.90;;;;;;5048715;28;20627;-52
2022/08/07 07:24:39;;;;;;;9.10;8.50;;;20.00;99.90;;;;;;5046475;28;20310;-52
2022/08/07 07:27:08;;;;;;;9.93;9.13;;;20.10;99.90;;;;;;5044248;28;20203;-52
2022/08/07 07:29:41;;;;;;;10.63;9.87;;;20.20;99.90;;;;;;5041316;28;20201;-52
2022/08/07 07:32:12;;;;;;;9.23;8.57;;;20.20;99.90;;;;;;5046327;28;20667;-52
2022/08/07 07:34:43;;;;;;;15.67;9.80;;;20.20;99.90;;;;;;5044925;28;20260;-52
2022/08/07 07:37:11;;;;;;;10.53;9.63;;;20.10;99.90;;;;;;5045253;28;20289;-53
2022/08/07 07:39:40;;;;;;;9.70;8.90;;;20.10;99.90;;;;;;5047398;28;20679;-52
2022/08/07 07:42:11;;;;;;;10.40;9.50;;;20.10;99.90;;;;;;5053302;28;20194;-52
2022/08/07 07:44:41;;;;;;;9.13;8.43;;;20.20;99.90;;;;;;5051398;28;20698;-52
2022/08/07 07:47:10;;;;;;;9.60;9.00;;;20.10;99.90;;;;;;5047949;28;20455;-53
2022/08/07 07:49:41;;;;;;;10.03;9.23;;;20.10;99.90;;;;;;5053935;28;20281;-52
2022/08/07 07:52:11;;;;;;;9.73;8.93;;;20.10;99.90;;;;;;5053400;28;20194;-52
2022/08/07 07:54:41;;;;;;;9.73;9.13;;;20.10;99.90;;;;;;5051305;28;20214;-52
2022/08/07 07:57:09;;;;;;;9.57;8.73;;;20.10;99.90;;;;;;5054017;28;20198;-52
2022/08/07 07:59:38;;;;;;;9.40;8.70;;;20.20;99.90;;;;;;5054056;28;20229;-52
2022/08/07 08:02:06;;;;;;;9.53;8.90;;;20.10;99.90;;;;;;5048137;28;20648;-52
2022/08/07 08:04:35;;;;;;;9.53;8.73;;;20.20;99.90;;;;;;5049489;28;20237;-53
2022/08/07 08:07:05;;;;;;;9.37;8.67;;;20.30;99.90;;;;;;5053541;28;20252;-53
2022/08/07 08:09:34;;;;;;;9.10;8.50;;;20.30;99.90;;;;;;5053605;28;20206;-53
2022/08/07 08:12:02;;;;;;;8.80;8.10;;;20.40;99.90;;;;;;5049039;28;20706;-53
2022/08/07 08:14:30;;;;;;;7.90;7.40;;;20.40;99.90;;;;;;5047693;28;20305;-52
2022/08/07 08:17:00;;;;;;;8.00;7.50;;;20.60;99.90;;;;;;5059121;28;20189;-53
2022/08/07 08:19:29;;;;;;;7.50;7.07;;;20.70;99.90;;;;;;5071683;28;20642;-53
2022/08/07 08:27:43;;;;;;;7.87;7.37;;;20.70;99.90;;;;;;5021440;28;20200;-52
2022/08/07 08:30:13;;;;;;;7.30;6.80;;;20.60;99.90;;;;;;5051152;28;20202;-52
2022/08/07 08:32:44;;;;;;;8.43;7.83;;;20.60;99.90;;;;;;5047299;28;20206;-52
2022/08/07 08:35:17;;;;;;;8.20;7.50;;;20.70;99.90;;;;;;5052548;28;20221;-53
2022/08/07 08:37:46;;;;;;;7.33;6.83;;;20.90;99.90;;;;;;5055989;28;20275;-53
2022/08/07 08:40:21;;;;;;;6.60;6.20;;;20.90;99.90;;;;;;5052508;28;20204;-52
2022/08/07 08:42:55;;;;;;;7.37;6.97;;;21.10;99.90;;;;;;5049951;28;20259;-52
2022/08/07 08:45:38;;;;;;;7.00;6.53;;;21.00;99.90;;;;;;5043101;28;20764;-52
2022/08/07 08:48:14;;;;;;;7.33;6.73;;;21.10;99.90;;;;;;5045149;28;20201;-52
2022/08/07 08:50:51;;;;;;;7.80;7.37;;;21.20;99.90;;;;;;5043667;28;20210;-52
2022/08/07 08:53:25;;;;;;;7.50;7.00;;;21.30;99.90;;;;;;5044632;28;20586;-52
2022/08/07 08:55:57;;;;;;;6.60;6.20;;;21.20;99.90;;;;;;5041983;28;20198;-52
2022/08/07 08:58:33;;;;;;;7.60;7.10;;;21.20;99.90;;;;;;5041661;28;20206;-52
2022/08/07 09:01:08;;;;;;;6.50;6.10;;;21.10;99.90;;;;;;5044103;28;20209;-52
2022/08/07 09:03:53;;;;;;;6.23;5.93;;;21.10;99.90;;;;;;5043120;28;20313;-52
2022/08/07 09:06:39;;;;;;;5.93;5.53;;;21.30;99.90;;;;;;5043870;28;20928;-52
2022/08/07 09:09:18;;;;;;;7.33;6.70;;;21.40;99.90;;;;;;5044709;28;20675;-52
2022/08/07 09:11:55;;;;;;;8.33;7.03;;;21.50;99.90;;;;;;5041383;28;20717;-52
2022/08/07 09:14:32;;;;;;;6.23;5.90;;;21.70;99.90;;;;;;5043658;28;20225;-52
2022/08/07 09:17:07;;;;;;;6.90;6.50;;;21.80;99.90;;;;;;5044626;28;20209;-53
2022/08/07 09:19:46;;;;;;;6.07;5.77;;;22.10;99.90;;;;;;5042169;28;20205;-52
2022/08/07 09:22:29;;;;;;;6.13;5.83;;;22.20;99.90;;;;;;5043222;28;20216;-52
2022/08/07 09:25:06;;;;;;;6.83;6.43;;;22.00;99.90;;;;;;5044354;28;20229;-53
2022/08/07 09:27:43;;;;;;;6.40;6.00;;;22.00;99.90;;;;;;5047972;28;20286;-52
2022/08/07 09:30:11;;;;;;;6.33;5.90;;;21.90;99.90;;;;;;5045203;28;20267;-52
2022/08/07 09:33:00;;;;;;;5.60;5.30;;;22.00;99.90;;;;;;5042324;28;20318;-53
2022/08/07 09:35:38;;;;;;;4.60;4.40;;;21.90;99.90;;;;;;5050418;28;20735;-52
2022/08/07 09:38:13;;;;;;;5.20;5.00;;;21.90;99.90;;;;;;5050342;28;20194;-52
2022/08/07 09:40:54;;;;;;;4.97;4.77;;;22.00;99.90;;;;;;5048530;28;20202;-53
2022/08/07 09:43:34;;;;;;;5.40;5.20;;;22.10;99.90;;;;;;5046649;28;20225;-52
2022/08/07 09:46:18;;;;;;;4.00;3.90;;;22.30;99.90;;;;;;5050393;28;20224;-53
2022/08/07 09:48:54;;;;;;;5.50;5.20;;;22.40;99.90;;;;;;5050167;28;20661;-53
2022/08/07 09:51:40;;;;;;;4.47;4.17;;;22.30;99.90;;;;;;5044384;28;20225;-53
2022/08/07 09:54:15;;;;;;;4.37;4.17;;;22.40;99.90;;;;;;5044278;28;20625;-53
2022/08/07 09:57:21;;;;;;;4.30;4.10;;;22.60;99.90;;;;;;5048023;28;20232;-53
2022/08/07 10:00:08;;;;;;;3.83;3.73;;;22.80;99.90;;;;;;5028100;28;20255;-52
2022/08/07 10:02:52;;;;;;;4.60;4.50;;;23.00;99.90;;;;;;5048603;28;21661;-52
2022/08/07 10:05:34;;;;;;;3.57;3.47;;;23.10;99.90;;;;;;5049950;28;22328;-53
2022/08/07 10:08:13;;;;;;;3.60;3.40;;;23.20;99.90;;;;;;5051075;28;20719;-53
2022/08/07 10:10:48;;;;;;;4.17;3.97;;;23.20;99.90;;;;;;5046296;28;20201;-53
2022/08/07 10:13:32;;;;;;;3.90;3.80;;;23.20;99.90;;;;;;5050276;28;20259;-52
2022/08/07 10:16:21;;;;;;;3.37;3.27;;;23.10;99.90;;;;;;5039193;28;20202;-53
2022/08/07 10:19:31;;;;;;;3.63;3.47;;;23.00;99.90;;;;;;5072936;22;20872;-55
2022/08/07 10:22:21;;;;;;;2.83;2.77;;;23.00;99.90;;;;;;5068229;28;20201;-53
2022/08/07 10:25:12;;;;;;;3.20;3.00;;;22.90;99.90;;;;;;5070438;28;20263;-53
2022/08/07 10:28:07;;;;;;;2.30;2.30;;;22.90;99.90;;;;;;5066071;28;20217;-53
2022/08/07 10:30:48;;;;;;;3.20;3.00;;;22.90;99.90;;;;;;5064891;28;20269;-53
2022/08/07 10:33:31;;;;;;;3.40;3.20;;;22.90;99.90;;;;;;5064993;28;20670;-53
2022/08/07 10:36:15;;;;;;;4.30;3.53;;;22.80;99.90;;;;;;5070751;28;20276;-53
2022/08/07 10:38:51;;;;;;;2.50;2.50;;;22.60;99.90;;;;;;5070637;28;20266;-53
2022/08/07 10:41:26;;;;;;;3.13;3.03;;;22.50;99.90;;;;;;5068472;28;20670;-53
2022/08/07 10:44:01;;;;;;;3.57;3.37;;;22.50;99.90;;;;;;5067412;28;20291;-52
2022/08/07 10:46:35;;;;;;;3.70;3.37;;;22.50;99.90;;;;;;5070437;28;20217;-53
2022/08/07 10:49:13;;;;;;;3.30;3.20;;;22.50;99.90;;;;;;5062125;28;20606;-53
2022/08/07 10:51:49;;;;;;;2.90;2.80;;;22.50;99.90;;;;;;5068905;28;20683;-52
2022/08/07 10:54:26;;;;;;;3.57;3.27;;;22.50;99.90;;;;;;5060679;28;20207;-53
2022/08/07 10:57:06;;;;;;;3.07;3.00;;;22.50;99.90;;;;;;5068649;28;20329;-52
2022/08/07 10:59:47;;;;;;;6.13;4.57;;;22.60;99.90;;;;;;5067588;28;20224;-53
2022/08/07 11:02:18;;;;;;;3.07;2.90;;;22.70;99.90;;;;;;5063948;28;20216;-53
2022/08/07 11:04:59;;;;;;;3.63;3.53;;;22.70;99.90;;;;;;5067347;28;20193;-52
2022/08/07 11:07:42;;;;;;;3.27;3.07;;;22.90;99.90;;;;;;5054994;28;20280;-52
2022/08/07 11:10:18;;;;;;;3.30;3.20;;;22.80;99.90;;;;;;5062479;28;20262;-53
2022/08/07 11:12:51;;;;;;;3.30;3.10;;;22.90;99.90;;;;;;5059644;28;20291;-53
2022/08/07 11:15:23;;;;;;;2.73;2.73;;;23.00;99.90;;;;;;5055006;28;20190;-53
2022/08/07 11:17:59;;;;;;;2.63;2.63;;;23.00;99.90;;;;;;5070520;28;20228;-53
2022/08/07 11:20:41;;;;;;;3.03;2.83;;;23.10;99.90;;;;;;5059188;28;20281;-53
2022/08/07 11:23:17;;;;;;;3.40;3.30;;;23.10;99.90;;;;;;5057821;28;20261;-53
2022/08/07 11:25:50;;;;;;;3.13;3.03;;;23.10;99.90;;;;;;5053749;28;20300;-52
2022/08/07 11:28:25;;;;;;;3.60;3.40;;;23.10;99.90;;;;;;5064608;28;20274;-53
2022/08/07 11:30:57;;;;;;;3.20;3.20;;;23.30;99.90;;;;;;5070698;28;20212;-54
2022/08/07 11:33:29;;;;;;;3.40;3.30;;;23.30;99.90;;;;;;5065616;28;20565;-53
2022/08/07 11:36:13;;;;;;;3.20;3.00;;;23.40;99.90;;;;;;5072973;28;20287;-53
2022/08/07 11:38:49;;;;;;;2.60;2.50;;;23.60;99.90;;;;;;5072751;28;20276;-53
2022/08/07 11:41:23;;;;;;;3.00;2.90;;;23.90;99.90;;;;;;5073556;28;20265;-53
2022/08/07 11:44:02;;;;;;;3.10;3.00;;;24.20;99.90;;;;;;5074052;28;20200;-53
2022/08/07 11:46:49;;;;;;;2.00;2.00;;;24.40;99.90;;;;;;5073658;28;20220;-53
2022/08/07 11:49:42;;;;;;;3.13;3.07;;;24.70;99.90;;;;;;5065259;28;20228;-53
2022/08/07 11:52:27;;;;;;;2.70;2.70;;;24.60;99.90;;;;;;5073386;28;20220;-53
2022/08/07 11:55:06;;;;;;;3.17;3.07;;;24.50;99.90;;;;;;5070486;28;20292;-53
2022/08/07 11:57:41;;;;;;;3.10;3.10;;;24.50;99.90;;;;;;5070026;28;20311;-53
2022/08/07 12:00:13;;;;;;;2.40;2.40;;;24.20;99.90;;;;;;5070291;28;20624;-53
2022/08/07 12:03:04;;;;;;;3.20;3.10;;;24.20;99.90;;;;;;5073406;28;20251;-53
2022/08/07 12:05:49;;;;;;;3.30;3.20;;;24.20;99.90;;;;;;5072017;28;20694;-53
2022/08/07 12:08:23;;;;;;;3.03;2.93;;;24.20;99.90;;;;;;5061764;28;20218;-53
2022/08/07 12:10:57;;;;;;;3.90;3.70;;;24.10;99.90;;;;;;5061487;28;20231;-53
2022/08/07 12:13:29;;;;;;;3.07;2.97;;;24.20;99.90;;;;;;5058270;28;20226;-53
2022/08/07 12:16:03;;;;;;;3.43;3.23;;;24.20;99.90;;;;;;5057977;28;20197;-52
2022/08/07 12:18:36;;;;;;;3.63;3.43;;;24.10;99.90;;;;;;5058518;28;20646;-54
2022/08/07 12:21:16;;;;;;;3.30;3.10;;;24.20;99.90;;;;;;5064974;28;20208;-53
2022/08/07 12:23:52;;;;;;;3.27;3.27;;;24.20;99.90;;;;;;5073360;28;20668;-53
2022/08/07 12:26:28;;;;;;;3.70;3.50;;;24.00;99.90;;;;;;5071971;28;20316;-53
2022/08/07 12:29:03;;;;;;;3.23;3.13;;;24.00;99.90;;;;;;5073005;28;20758;-54
2022/08/07 12:31:38;;;;;;;3.53;3.43;;;24.20;99.90;;;;;;5072497;28;20197;-53
2022/08/07 12:34:06;;;;;;;3.17;3.07;;;24.40;99.90;;;;;;5063260;28;20249;-52
2022/08/07 12:36:34;;;;;;;3.30;3.20;;;24.30;99.90;;;;;;5058706;28;20251;-53
2022/08/07 12:39:05;;;;;;;3.23;3.13;;;24.50;99.90;;;;;;5056483;28;20297;-52
2022/08/07 12:41:36;;;;;;;4.07;3.97;;;24.60;99.90;;;;;;5053029;28;20267;-53
2022/08/07 12:44:09;;;;;;;3.20;3.13;;;24.90;99.90;;;;;;5058982;28;20254;-53
2022/08/07 12:46:47;;;;;;;2.60;2.60;;;25.00;99.90;;;;;;5059219;28;20633;-52
2022/08/07 12:49:22;;;;;;;3.30;3.20;;;25.00;99.90;;;;;;5057271;28;20255;-52
2022/08/07 12:51:58;;;;;;;3.30;3.17;;;24.90;99.90;;;;;;5056176;28;20266;-53
2022/08/07 12:54:33;;;;;;;2.73;2.73;;;25.10;99.90;;;;;;5059707;28;20227;-52
2022/08/07 12:57:01;;;;;;;3.23;3.13;;;25.10;99.90;;;;;;5065093;28;20193;-53
2022/08/07 12:59:32;;;;;;;3.37;3.17;;;24.90;99.90;;;;;;5059659;28;20231;-53
2022/08/07 13:02:08;;;;;;;2.80;2.70;;;25.00;99.90;;;;;;5064049;28;20246;-52
2022/08/07 13:04:49;;;;;;;3.63;3.53;;;24.90;99.90;;;;;;5070905;28;20239;-53
2022/08/07 13:07:36;;;;;;;3.73;3.63;;;24.50;99.90;;;;;;5060124;28;20244;-52
2022/08/07 13:10:38;;;;;;;3.80;3.70;;;24.20;99.90;;;;;;5057757;28;20248;-52
2022/08/07 13:13:25;;;;;;;3.10;2.97;;;23.90;99.90;;;;;;5055709;28;20201;-53
2022/08/07 13:16:00;;;;;;;3.60;3.50;;;24.00;99.90;;;;;;5052490;28;20253;-53
2022/08/07 13:18:38;;;;;;;3.00;2.90;;;24.00;99.90;;;;;;5055555;28;20255;-53